Time;durP1;ratioP1;P1;durP2;ratioP2;P2;SDS_P1;SDS_P2;PMS_P1;PMS_P2;Temp;Humidity;BMP_temperature;BMP_pressure;BME280_temperature;BME280_humidity;BME280_pressure;Samples;Min_cycle;Max_cycle;Signal;HPM_P1;HPM_P2
2023/05/06 00:01:53;;;;;;;2.70;1.30;;;;;;;;;;5060276;27;88832;-48
2023/05/06 00:04:21;;;;;;;2.53;1.00;;;;;;;;;;5059672;27;88151;-48
2023/05/06 00:06:50;;;;;;;1.50;1.10;;;;;;;;;;5059794;27;87650;-48
2023/05/06 00:09:18;;;;;;;1.57;1.07;;;;;;;;;;5061081;27;87075;-48
2023/05/06 00:11:48;;;;;;;2.60;1.57;;;;;;;;;;5060222;27;87047;-48
2023/05/06 00:14:16;;;;;;;2.27;1.40;;;;;;;;;;5056031;27;90308;-48
2023/05/06 00:16:44;;;;;;;1.13;0.90;;;;;;;;;;5059690;27;88754;-48
2023/05/06 00:19:13;;;;;;;1.20;1.10;;;;;;;;;;5059844;27;87118;-48
2023/05/06 00:21:41;;;;;;;3.80;1.03;;;;;;;;;;5060214;27;87173;-48
2023/05/06 00:24:10;;;;;;;2.20;0.97;;;;;;;;;;5060327;27;88007;-48
2023/05/06 00:26:38;;;;;;;2.43;1.13;;;;;;;;;;5059686;27;88674;-48
2023/05/06 00:29:08;;;;;;;1.00;0.87;;;;;;;;;;5060538;27;87007;-48
2023/05/06 00:31:36;;;;;;;1.10;1.00;;;;;;;;;;5061467;27;85991;-48
2023/05/06 00:34:04;;;;;;;1.47;1.10;;;;;;;;;;5061499;27;89120;-48
2023/05/06 00:36:33;;;;;;;2.13;1.30;;;;;;;;;;5059887;27;88821;-48
2023/05/06 00:39:01;;;;;;;1.13;0.93;;;;;;;;;;5061193;27;87909;-49
2023/05/06 00:41:31;;;;;;;1.73;1.07;;;;;;;;;;5061384;27;86984;-48
2023/05/06 00:44:00;;;;;;;1.20;1.10;;;;;;;;;;5040676;28;89177;-48
2023/05/06 00:46:29;;;;;;;1.10;1.00;;;;;;;;;;5052788;27;88774;-48
2023/05/06 00:48:57;;;;;;;1.20;1.10;;;;;;;;;;5060739;27;87097;-48
2023/05/06 00:51:26;;;;;;;1.13;0.90;;;;;;;;;;5062774;27;87013;-48
2023/05/06 00:53:55;;;;;;;0.97;0.83;;;;;;;;;;5063466;27;88170;-48
2023/05/06 00:56:23;;;;;;;1.40;1.00;;;;;;;;;;5064396;27;87763;-48
2023/05/06 00:58:52;;;;;;;0.87;0.87;;;;;;;;;;5060232;27;88159;-48
2023/05/06 01:01:21;;;;;;;0.77;0.70;;;;;;;;;;5064844;27;86989;-48
2023/05/06 01:03:55;;;;;;;2.07;1.23;;;;;;;;;;5062818;27;90173;-48
2023/05/06 01:06:26;;;;;;;1.27;1.17;;;;;;;;;;5062095;27;89901;-48
2023/05/06 01:08:55;;;;;;;1.40;1.20;;;;;;;;;;5062187;27;87706;-48
2023/05/06 01:11:25;;;;;;;1.00;0.90;;;;;;;;;;5063564;27;86999;-48
2023/05/06 01:13:56;;;;;;;1.20;1.10;;;;;;;;;;5062423;27;88237;-48
2023/05/06 01:16:25;;;;;;;1.57;1.00;;;;;;;;;;5063998;27;88786;-48
2023/05/06 01:18:55;;;;;;;1.20;0.67;;;;;;;;;;5064098;27;87027;-48
2023/05/06 01:21:25;;;;;;;1.77;0.67;;;;;;;;;;5064202;27;86450;-48
2023/05/06 01:23:56;;;;;;;1.10;0.80;;;;;;;;;;5063785;27;89087;-48
2023/05/06 01:26:25;;;;;;;0.97;0.90;;;;;;;;;;5056906;27;88734;-48
2023/05/06 01:28:53;;;;;;;0.80;0.80;;;;;;;;;;5055212;27;87938;-48
2023/05/06 01:31:24;;;;;;;1.10;0.90;;;;;;;;;;5063204;27;87080;-48
2023/05/06 01:33:55;;;;;;;1.43;1.07;;;;;;;;;;5063982;27;87988;-48
2023/05/06 01:36:25;;;;;;;1.00;0.80;;;;;;;;;;5063457;27;88619;-48
2023/05/06 01:38:53;;;;;;;1.13;0.70;;;;;;;;;;5064009;27;86973;-48
2023/05/06 01:41:23;;;;;;;1.63;0.93;;;;;;;;;;5063765;27;87068;-48
2023/05/06 01:43:51;;;;;;;1.43;1.03;;;;;;;;;;5062897;27;88919;-48
2023/05/06 01:46:20;;;;;;;1.10;1.00;;;;;;;;;;5062081;27;88789;-48
2023/05/06 01:48:50;;;;;;;1.17;0.63;;;;;;;;;;5057706;27;88600;-48
2023/05/06 01:51:18;;;;;;;0.80;0.80;;;;;;;;;;5057664;27;87090;-48
2023/05/06 01:53:46;;;;;;;2.07;0.80;;;;;;;;;;5062715;27;90176;-48
2023/05/06 01:56:15;;;;;;;1.13;0.90;;;;;;;;;;5063199;27;88567;-48
2023/05/06 01:58:44;;;;;;;1.60;1.20;;;;;;;;;;5063280;27;87130;-48
2023/05/06 02:01:13;;;;;;;2.33;1.20;;;;;;;;;;5052935;27;87175;-48
2023/05/06 02:03:41;;;;;;;1.27;1.17;;;;;;;;;;5062728;27;89086;-48
2023/05/06 02:06:10;;;;;;;1.60;0.90;;;;;;;;;;5063849;27;88758;-48
2023/05/06 02:08:39;;;;;;;2.93;1.07;;;;;;;;;;5063852;27;87106;-48
2023/05/06 02:11:07;;;;;;;2.53;1.30;;;;;;;;;;5063627;27;86280;-48
2023/05/06 02:13:36;;;;;;;1.80;0.90;;;;;;;;;;5062599;27;89311;-48
2023/05/06 02:16:05;;;;;;;1.33;1.07;;;;;;;;;;5061307;27;87751;-48
2023/05/06 02:18:34;;;;;;;2.10;1.57;;;;;;;;;;5049223;27;88063;-48
2023/05/06 02:21:02;;;;;;;5.70;1.27;;;;;;;;;;5063382;27;87090;-48
2023/05/06 02:23:31;;;;;;;1.13;0.97;;;;;;;;;;5062486;27;88332;-48
2023/05/06 02:25:59;;;;;;;1.10;1.00;;;;;;;;;;5062904;27;88974;-48
2023/05/06 02:28:27;;;;;;;1.13;1.00;;;;;;;;;;5053164;27;86939;-48
2023/05/06 02:30:56;;;;;;;1.50;1.03;;;;;;;;;;5051246;27;87907;-48
2023/05/06 02:33:25;;;;;;;1.40;1.17;;;;;;;;;;5052515;27;88216;-48
2023/05/06 02:35:54;;;;;;;1.13;1.10;;;;;;;;;;5055351;27;88861;-48
2023/05/06 02:38:22;;;;;;;2.37;1.30;;;;;;;;;;5055821;27;87905;-48
2023/05/06 02:40:50;;;;;;;1.40;1.30;;;;;;;;;;5049846;27;87139;-48
2023/05/06 02:43:19;;;;;;;1.60;1.50;;;;;;;;;;5049566;27;90031;-48
2023/05/06 02:45:47;;;;;;;0.97;0.90;;;;;;;;;;5053550;27;88752;-48
2023/05/06 02:48:15;;;;;;;1.10;1.00;;;;;;;;;;5051460;27;88869;-48
2023/05/06 02:50:45;;;;;;;0.87;0.77;;;;;;;;;;5051853;27;87215;-48
2023/05/06 02:53:13;;;;;;;1.13;0.97;;;;;;;;;;5050181;27;87804;-47
2023/05/06 02:55:42;;;;;;;1.00;0.90;;;;;;;;;;5059223;27;88903;-47
2023/05/06 02:58:10;;;;;;;1.77;1.10;;;;;;;;;;5056974;27;87129;-48
2023/05/06 03:00:38;;;;;;;0.77;0.70;;;;;;;;;;5053889;27;86668;-48
2023/05/06 03:03:07;;;;;;;1.40;1.30;;;;;;;;;;5052916;27;88146;-47
2023/05/06 03:05:35;;;;;;;1.33;1.20;;;;;;;;;;5053306;27;87913;-47
2023/05/06 03:08:05;;;;;;;2.63;1.30;;;;;;;;;;5054150;27;88280;-47
2023/05/06 03:10:34;;;;;;;1.63;1.13;;;;;;;;;;5055716;27;89585;-48
2023/05/06 03:13:02;;;;;;;1.63;1.53;;;;;;;;;;5054369;27;89081;-48
2023/05/06 03:15:30;;;;;;;1.40;1.30;;;;;;;;;;5049183;27;87719;-47
2023/05/06 03:17:59;;;;;;;1.80;0.93;;;;;;;;;;5059717;27;87006;-47
2023/05/06 03:20:27;;;;;;;2.43;2.03;;;;;;;;;;5052841;27;87163;-47
2023/05/06 03:22:56;;;;;;;1.47;1.20;;;;;;;;;;5062453;27;88021;-48
2023/05/06 03:25:25;;;;;;;0.80;0.80;;;;;;;;;;5057687;27;87965;-47
2023/05/06 03:27:54;;;;;;;2.07;1.20;;;;;;;;;;5051897;27;87014;-48
2023/05/06 03:30:22;;;;;;;1.47;1.00;;;;;;;;;;5051063;27;88951;-47
2023/05/06 03:32:50;;;;;;;1.50;1.40;;;;;;;;;;5050729;27;89254;-47
2023/05/06 03:35:19;;;;;;;1.37;1.13;;;;;;;;;;5052805;27;91909;-47
2023/05/06 03:37:47;;;;;;;0.90;0.90;;;;;;;;;;5057023;27;87061;-47
2023/05/06 03:40:15;;;;;;;1.80;1.40;;;;;;;;;;5053994;27;87032;-47
2023/05/06 03:42:45;;;;;;;3.33;1.27;;;;;;;;;;5050902;27;89228;-47
2023/05/06 03:45:13;;;;;;;0.97;0.97;;;;;;;;;;5056722;27;89059;-48
2023/05/06 03:47:41;;;;;;;2.13;1.47;;;;;;;;;;5052845;27;87273;-47
2023/05/06 03:50:10;;;;;;;1.03;0.97;;;;;;;;;;5053844;27;86429;-48
2023/05/06 03:52:39;;;;;;;1.40;1.30;;;;;;;;;;5049270;27;88267;-47
2023/05/06 03:55:07;;;;;;;5.87;1.30;;;;;;;;;;5055692;27;87553;-47
2023/05/06 03:57:36;;;;;;;3.20;1.40;;;;;;;;;;5051939;27;88023;-48
2023/05/06 04:00:06;;;;;;;1.37;1.00;;;;;;;;;;5053608;27;86943;-47
2023/05/06 04:02:35;;;;;;;1.10;1.10;;;;;;;;;;5052353;27;88335;-47
2023/05/06 04:05:03;;;;;;;1.23;1.10;;;;;;;;;;5051569;27;88769;-49
2023/05/06 04:07:32;;;;;;;1.73;0.90;;;;;;;;;;5055398;27;86781;-49
2023/05/06 04:10:00;;;;;;;2.73;1.23;;;;;;;;;;5054937;27;87013;-49
2023/05/06 04:12:28;;;;;;;1.40;0.97;;;;;;;;;;5049657;27;89155;-48
2023/05/06 04:14:56;;;;;;;1.63;1.33;;;;;;;;;;5053409;27;87563;-49
2023/05/06 04:17:26;;;;;;;1.40;1.30;;;;;;;;;;5056130;27;87802;-50
2023/05/06 04:19:55;;;;;;;1.97;1.03;;;;;;;;;;5059493;27;88329;-47
2023/05/06 04:22:23;;;;;;;1.17;1.07;;;;;;;;;;5057258;27;89058;-50
2023/05/06 04:24:51;;;;;;;1.63;1.23;;;;;;;;;;5063094;27;89851;-49
2023/05/06 04:27:20;;;;;;;2.07;1.20;;;;;;;;;;5052809;27;87151;-49
2023/05/06 04:29:48;;;;;;;1.30;1.20;;;;;;;;;;5058622;27;87075;-50
2023/05/06 04:32:16;;;;;;;1.90;1.40;;;;;;;;;;5061103;27;89198;-51
2023/05/06 04:34:46;;;;;;;0.80;0.80;;;;;;;;;;5061445;27;88700;-48
2023/05/06 04:37:15;;;;;;;1.50;1.40;;;;;;;;;;5049399;27;87784;-56
2023/05/06 04:39:46;;;;;;;1.40;1.30;;;;;;;;;;5055899;27;86375;-55
2023/05/06 04:42:15;;;;;;;1.30;1.20;;;;;;;;;;5051643;27;88170;-55
2023/05/06 04:44:43;;;;;;;4.67;1.13;;;;;;;;;;5054668;27;87274;-56
2023/05/06 04:47:11;;;;;;;1.90;1.27;;;;;;;;;;5051685;27;88404;-54
2023/05/06 04:49:40;;;;;;;1.33;1.00;;;;;;;;;;5054683;27;87278;-56
2023/05/06 04:52:09;;;;;;;1.93;1.20;;;;;;;;;;5054313;27;88742;-53
2023/05/06 04:54:38;;;;;;;1.50;1.20;;;;;;;;;;5055250;27;87790;-54
2023/05/06 04:57:06;;;;;;;1.87;1.40;;;;;;;;;;5055921;27;87084;-56
2023/05/06 04:59:34;;;;;;;1.47;1.10;;;;;;;;;;5058063;27;87159;-56
2023/05/06 05:02:03;;;;;;;2.20;1.10;;;;;;;;;;5048732;27;88973;-56
2023/05/06 05:04:31;;;;;;;1.00;0.80;;;;;;;;;;5051852;27;89006;-55
2023/05/06 05:06:59;;;;;;;1.10;1.00;;;;;;;;;;5057322;27;88392;-55
2023/05/06 05:09:29;;;;;;;1.20;0.80;;;;;;;;;;5056487;27;88921;-55
2023/05/06 05:11:57;;;;;;;1.37;1.07;;;;;;;;;;5052361;27;89227;-55
2023/05/06 05:14:26;;;;;;;1.17;1.03;;;;;;;;;;5052638;27;88687;-52
2023/05/06 05:16:54;;;;;;;3.03;1.13;;;;;;;;;;5052315;27;88362;-54
2023/05/06 05:19:22;;;;;;;0.97;0.90;;;;;;;;;;5062521;27;88014;-55
2023/05/06 05:21:51;;;;;;;1.47;1.27;;;;;;;;;;5064642;27;89103;-56
2023/05/06 05:24:19;;;;;;;0.63;0.60;;;;;;;;;;5058746;27;87045;-55
2023/05/06 05:26:49;;;;;;;2.07;1.00;;;;;;;;;;5052812;27;87016;-54
2023/05/06 05:29:17;;;;;;;3.43;0.90;;;;;;;;;;5053093;27;86234;-54
2023/05/06 05:31:45;;;;;;;0.93;0.83;;;;;;;;;;5050765;27;89038;-53
2023/05/06 05:34:14;;;;;;;1.90;1.17;;;;;;;;;;5051710;27;89129;-54
2023/05/06 05:36:42;;;;;;;0.60;0.60;;;;;;;;;;5050827;27;89486;-53
2023/05/06 05:39:10;;;;;;;1.00;0.83;;;;;;;;;;5055516;27;87141;-53
2023/05/06 05:41:39;;;;;;;1.50;0.80;;;;;;;;;;5054862;27;89704;-53
2023/05/06 05:44:08;;;;;;;0.87;0.70;;;;;;;;;;5056651;27;89188;-53
2023/05/06 05:46:37;;;;;;;1.43;0.93;;;;;;;;;;5052664;27;87196;-54
2023/05/06 05:49:05;;;;;;;0.83;0.63;;;;;;;;;;5046896;27;87118;-53
2023/05/06 05:51:33;;;;;;;1.53;0.77;;;;;;;;;;5052906;27;89198;-53
2023/05/06 05:54:01;;;;;;;3.20;1.57;;;;;;;;;;5056544;27;87748;-53
2023/05/06 05:56:30;;;;;;;1.00;0.90;;;;;;;;;;5052229;27;87146;-54
2023/05/06 05:58:58;;;;;;;1.37;0.77;;;;;;;;;;5051510;27;87158;-54
2023/05/06 06:01:28;;;;;;;1.00;0.90;;;;;;;;;;5051951;27;90332;-54
2023/05/06 06:03:57;;;;;;;0.77;0.67;;;;;;;;;;5055357;27;87645;-54
2023/05/06 06:06:26;;;;;;;2.67;0.50;;;;;;;;;;5053596;27;88543;-54
2023/05/06 06:08:55;;;;;;;2.53;0.90;;;;;;;;;;5051176;27;87111;-54
2023/05/06 06:11:24;;;;;;;0.87;0.70;;;;;;;;;;5052441;27;89329;-54
2023/05/06 06:13:52;;;;;;;0.63;0.63;;;;;;;;;;5054364;27;89303;-54
2023/05/06 06:16:20;;;;;;;1.10;0.80;;;;;;;;;;5053089;27;88048;-55
2023/05/06 06:18:50;;;;;;;0.70;0.70;;;;;;;;;;5053478;27;86362;-55
2023/05/06 06:21:18;;;;;;;0.50;0.50;;;;;;;;;;5055565;27;89202;-53
2023/05/06 06:23:47;;;;;;;1.03;0.53;;;;;;;;;;5059372;27;88302;-53
2023/05/06 06:26:15;;;;;;;0.50;0.50;;;;;;;;;;5061909;27;88030;-55
2023/05/06 06:28:44;;;;;;;2.30;0.80;;;;;;;;;;5062709;27;87035;-54
2023/05/06 06:31:12;;;;;;;2.77;0.73;;;;;;;;;;5059759;27;88234;-54
2023/05/06 06:33:41;;;;;;;1.80;0.70;;;;;;;;;;5052189;27;87971;-54
2023/05/06 06:36:10;;;;;;;1.63;0.93;;;;;;;;;;5057404;27;87620;-51
2023/05/06 06:38:40;;;;;;;1.20;0.80;;;;;;;;;;5051518;27;86958;-53
2023/05/06 06:41:08;;;;;;;0.87;0.80;;;;;;;;;;5047062;27;88847;-53
2023/05/06 06:43:36;;;;;;;0.80;0.80;;;;;;;;;;5054718;27;88012;-53
2023/05/06 06:46:05;;;;;;;1.60;1.50;;;;;;;;;;5052607;27;87726;-54
2023/05/06 06:48:33;;;;;;;3.40;1.97;;;;;;;;;;5052383;27;89476;-53
2023/05/06 06:51:01;;;;;;;6.83;4.37;;;;;;;;;;5050727;27;89088;-53
2023/05/06 06:53:31;;;;;;;4.37;3.97;;;;;;;;;;5057255;27;89785;-52
2023/05/06 06:56:00;;;;;;;5.70;3.17;;;;;;;;;;5054764;27;87396;-52
2023/05/06 06:58:28;;;;;;;3.13;2.83;;;;;;;;;;5054405;27;86933;-52
2023/05/06 07:00:56;;;;;;;3.03;2.63;;;;;;;;;;5049990;27;88910;-49
2023/05/06 07:03:25;;;;;;;2.60;2.40;;;;;;;;;;5050688;27;87950;-49
2023/05/06 07:05:53;;;;;;;2.30;2.10;;;;;;;;;;5053639;27;88564;-50
2023/05/06 07:08:21;;;;;;;2.47;2.27;;;;;;;;;;5057365;27;87946;-49
2023/05/06 07:10:51;;;;;;;2.83;2.10;;;;;;;;;;5052915;27;88290;-50
2023/05/06 07:13:22;;;;;;;2.50;2.30;;;;;;;;;;5052435;27;89509;-50
2023/05/06 07:15:50;;;;;;;2.00;1.80;;;;;;;;;;5053120;27;88024;-50
2023/05/06 07:18:19;;;;;;;3.40;1.80;;;;;;;;;;5061252;27;87081;-50
2023/05/06 07:20:47;;;;;;;2.83;1.77;;;;;;;;;;5062062;27;89253;-50
2023/05/06 07:23:15;;;;;;;1.60;1.40;;;;;;;;;;5046583;27;88626;-50
2023/05/06 07:25:44;;;;;;;2.17;1.37;;;;;;;;;;5054623;27;87006;-50
2023/05/06 07:28:14;;;;;;;3.37;1.73;;;;;;;;;;5051785;27;87479;-50
2023/05/06 07:30:42;;;;;;;1.57;1.40;;;;;;;;;;5055510;27;88668;-53
2023/05/06 07:33:11;;;;;;;1.50;1.40;;;;;;;;;;5052184;27;87686;-53
2023/05/06 07:35:39;;;;;;;2.10;1.33;;;;;;;;;;5056652;27;87059;-53
2023/05/06 07:38:07;;;;;;;1.53;1.13;;;;;;;;;;5053615;27;88119;-49
2023/05/06 07:40:35;;;;;;;1.07;1.00;;;;;;;;;;5049908;27;90283;-50
2023/05/06 07:43:04;;;;;;;1.27;1.17;;;;;;;;;;5053599;27;88927;-50
2023/05/06 07:45:33;;;;;;;1.57;1.27;;;;;;;;;;5053479;27;88194;-50
2023/05/06 07:48:02;;;;;;;2.73;1.43;;;;;;;;;;5047328;27;87201;-50
2023/05/06 07:50:30;;;;;;;1.97;1.60;;;;;;;;;;5054385;27;88048;-50
2023/05/06 07:52:59;;;;;;;4.23;1.40;;;;;;;;;;5053340;27;87573;-50
2023/05/06 07:55:28;;;;;;;1.57;1.30;;;;;;;;;;5060664;27;86938;-50
2023/05/06 07:57:56;;;;;;;1.13;1.00;;;;;;;;;;5050847;27;86985;-50
2023/05/06 08:00:25;;;;;;;1.50;1.40;;;;;;;;;;5051437;27;88980;-50
2023/05/06 08:02:54;;;;;;;1.30;1.20;;;;;;;;;;5055019;27;89019;-50
2023/05/06 08:05:23;;;;;;;1.13;1.00;;;;;;;;;;5053609;27;88720;-50
2023/05/06 08:07:52;;;;;;;1.33;1.13;;;;;;;;;;5056177;27;89007;-50
2023/05/06 08:10:21;;;;;;;1.43;1.33;;;;;;;;;;5055485;27;88224;-50
2023/05/06 08:12:50;;;;;;;1.40;1.03;;;;;;;;;;5053944;27;87726;-50
2023/05/06 08:15:18;;;;;;;1.00;0.90;;;;;;;;;;5054747;27;87310;-50
2023/05/06 08:17:46;;;;;;;1.40;1.00;;;;;;;;;;5051960;27;88001;-50
2023/05/06 08:20:16;;;;;;;1.27;1.00;;;;;;;;;;5054687;27;89234;-50
2023/05/06 08:22:44;;;;;;;1.33;1.03;;;;;;;;;;5056282;27;87849;-50
2023/05/06 08:25:13;;;;;;;1.33;0.70;;;;;;;;;;5061756;27;87067;-51
2023/05/06 08:27:41;;;;;;;1.40;1.17;;;;;;;;;;5053401;27;87487;-51
2023/05/06 08:30:10;;;;;;;1.00;0.90;;;;;;;;;;5048842;27;90030;-51
2023/05/06 08:32:38;;;;;;;1.33;0.87;;;;;;;;;;5053802;27;88856;-51
2023/05/06 08:35:07;;;;;;;0.70;0.70;;;;;;;;;;5062668;27;88875;-51
2023/05/06 08:37:37;;;;;;;1.47;0.90;;;;;;;;;;5065063;27;87053;-51
2023/05/06 08:40:06;;;;;;;1.10;1.00;;;;;;;;;;5065194;27;88095;-51
2023/05/06 08:42:34;;;;;;;1.20;1.00;;;;;;;;;;5064245;27;88662;-51
2023/05/06 08:45:03;;;;;;;0.70;0.70;;;;;;;;;;5064973;27;87212;-50
2023/05/06 08:47:31;;;;;;;1.20;1.10;;;;;;;;;;5065077;27;86061;-51
2023/05/06 08:50:00;;;;;;;0.80;0.70;;;;;;;;;;5063805;27;88240;-51
2023/05/06 08:52:28;;;;;;;0.80;0.80;;;;;;;;;;5063520;27;87959;-51
2023/05/06 08:55:00;;;;;;;2.80;1.23;;;;;;;;;;5064144;27;87927;-51
2023/05/06 08:57:29;;;;;;;1.13;1.00;;;;;;;;;;5064387;27;87022;-51
2023/05/06 08:59:57;;;;;;;1.40;0.80;;;;;;;;;;5063885;27;87802;-51
2023/05/06 09:02:25;;;;;;;1.37;1.03;;;;;;;;;;5064372;27;88778;-51
2023/05/06 09:04:54;;;;;;;1.37;0.90;;;;;;;;;;5062141;27;86983;-51
2023/05/06 09:07:22;;;;;;;2.33;1.10;;;;;;;;;;5043731;27;87063;-51
2023/05/06 09:09:51;;;;;;;1.20;0.90;;;;;;;;;;5045148;27;89041;-51
2023/05/06 09:12:21;;;;;;;0.80;0.67;;;;;;;;;;5051778;27;87754;-51
2023/05/06 09:14:50;;;;;;;0.73;0.70;;;;;;;;;;5054654;27;87254;-51
2023/05/06 09:17:22;;;;;;;0.97;0.80;;;;;;;;;;5049931;27;87344;-51
2023/05/06 09:19:52;;;;;;;1.13;0.90;;;;;;;;;;5060806;27;89134;-51
2023/05/06 09:22:21;;;;;;;1.57;0.73;;;;;;;;;;5056498;27;88703;-50
2023/05/06 09:24:55;;;;;;;0.90;0.90;;;;;;;;;;5063911;27;86993;-51
2023/05/06 09:27:25;;;;;;;1.33;0.90;;;;;;;;;;5063878;27;87038;-51
2023/05/06 09:30:00;;;;;;;0.60;0.60;;;;;;;;;;5063135;27;88160;-52
2023/05/06 09:32:29;;;;;;;1.10;0.80;;;;;;;;;;5063171;27;88820;-50
2023/05/06 09:34:57;;;;;;;0.73;0.73;;;;;;;;;;5063790;27;86921;-51
2023/05/06 09:37:26;;;;;;;0.90;0.90;;;;;;;;;;5064573;27;86428;-52
2023/05/06 09:39:55;;;;;;;2.80;1.30;;;;;;;;;;5061997;27;89240;-52
2023/05/06 09:42:24;;;;;;;1.87;1.47;;;;;;;;;;5063184;27;87855;-52
2023/05/06 09:44:54;;;;;;;3.53;1.50;;;;;;;;;;5063076;27;87980;-51
2023/05/06 09:47:22;;;;;;;3.37;1.57;;;;;;;;;;5062232;27;87016;-51
2023/05/06 09:49:51;;;;;;;2.37;1.37;;;;;;;;;;5062615;27;87966;-51
2023/05/06 09:52:19;;;;;;;1.67;1.57;;;;;;;;;;5062918;27;88806;-50
2023/05/06 09:54:48;;;;;;;2.97;1.47;;;;;;;;;;5063419;27;87925;-51
2023/05/06 09:57:16;;;;;;;8.40;1.90;;;;;;;;;;5056991;27;87876;-50
2023/05/06 09:59:44;;;;;;;1.90;1.80;;;;;;;;;;5062673;27;88292;-51
2023/05/06 10:02:14;;;;;;;4.07;1.60;;;;;;;;;;5062757;27;88741;-51
2023/05/06 10:04:44;;;;;;;2.70;1.87;;;;;;;;;;5062904;27;88129;-51
2023/05/06 10:07:13;;;;;;;2.00;1.20;;;;;;;;;;5063101;27;87452;-51
2023/05/06 10:09:41;;;;;;;2.47;1.93;;;;;;;;;;5058158;27;90131;-51
2023/05/06 10:12:10;;;;;;;1.57;1.23;;;;;;;;;;5062519;27;88937;-51
2023/05/06 10:14:38;;;;;;;2.83;0.90;;;;;;;;;;5060003;27;87019;-53
2023/05/06 10:17:07;;;;;;;4.20;1.37;;;;;;;;;;5062015;27;86978;-51
2023/05/06 10:19:37;;;;;;;1.37;1.27;;;;;;;;;;5062002;27;89191;-50
2023/05/06 10:22:08;;;;;;;2.87;1.10;;;;;;;;;;5058490;27;88855;-51
2023/05/06 10:24:37;;;;;;;0.67;0.67;;;;;;;;;;5062390;27;87031;-50
2023/05/06 10:27:06;;;;;;;1.20;1.03;;;;;;;;;;5062502;27;86256;-51
2023/05/06 10:29:34;;;;;;;5.90;1.57;;;;;;;;;;5059412;27;88245;-51
2023/05/06 10:32:03;;;;;;;2.30;1.43;;;;;;;;;;5061206;27;87884;-51
2023/05/06 10:34:33;;;;;;;2.17;1.40;;;;;;;;;;5062690;27;88016;-51
2023/05/06 10:37:02;;;;;;;1.67;1.43;;;;;;;;;;5063249;27;87845;-51
2023/05/06 10:39:31;;;;;;;1.93;1.43;;;;;;;;;;5062882;27;88115;-51
2023/05/06 10:42:00;;;;;;;2.83;1.43;;;;;;;;;;5062280;27;88845;-51
2023/05/06 10:44:43;;;;;;;1.83;1.60;;;;;;;;;;5059968;27;87068;-51
2023/05/06 10:47:13;;;;;;;2.03;1.50;;;;;;;;;;5038495;27;87077;-52
2023/05/06 10:49:41;;;;;;;2.63;1.73;;;;;;;;;;5042333;28;89189;-51
2023/05/06 10:52:11;;;;;;;2.03;1.30;;;;;;;;;;5059870;27;86487;-51
2023/05/06 10:54:49;;;;;;;1.43;1.13;;;;;;;;;;5063133;27;87056;-51
2023/05/06 10:57:19;;;;;;;2.40;1.57;;;;;;;;;;5062098;27;87007;-51
2023/05/06 10:59:48;;;;;;;1.37;1.17;;;;;;;;;;5061847;27;87789;-51
2023/05/06 11:02:18;;;;;;;1.97;1.50;;;;;;;;;;5062632;27;88774;-51
2023/05/06 11:04:50;;;;;;;1.77;1.67;;;;;;;;;;5042301;27;86920;-51
2023/05/06 11:07:23;;;;;;;2.00;1.40;;;;;;;;;;5045699;27;87043;-51
2023/05/06 11:09:55;;;;;;;6.47;1.70;;;;;;;;;;5061897;27;89135;-52
2023/05/06 11:12:23;;;;;;;1.67;1.57;;;;;;;;;;5062324;27;88944;-52
2023/05/06 11:14:51;;;;;;;1.93;1.63;;;;;;;;;;5061941;27;86726;-52
2023/05/06 11:17:29;;;;;;;2.33;1.80;;;;;;;;;;5062235;27;88351;-51
2023/05/06 11:20:17;;;;;;;3.10;1.80;;;;;;;;;;5061258;27;87915;-52
2023/05/06 11:22:46;;;;;;;2.33;1.30;;;;;;;;;;5057888;27;87629;-51
2023/05/06 11:25:15;;;;;;;3.03;1.97;;;;;;;;;;5061525;27;87902;-51
2023/05/06 11:27:43;;;;;;;1.90;1.50;;;;;;;;;;5054599;27;87261;-51
2023/05/06 11:30:14;;;;;;;1.60;1.47;;;;;;;;;;5061062;27;89229;-52
2023/05/06 11:32:42;;;;;;;1.60;1.50;;;;;;;;;;5061714;27;88817;-51
2023/05/06 11:35:10;;;;;;;2.77;1.50;;;;;;;;;;5061602;27;86997;-52
2023/05/06 11:37:39;;;;;;;1.90;1.63;;;;;;;;;;5060938;27;86958;-51
2023/05/06 11:40:15;;;;;;;2.20;1.37;;;;;;;;;;5056022;27;89267;-51
2023/05/06 11:42:43;;;;;;;4.23;1.67;;;;;;;;;;5062470;27;87652;-51
2023/05/06 11:45:12;;;;;;;2.17;1.40;;;;;;;;;;5062233;27;87108;-51
2023/05/06 11:47:44;;;;;;;2.27;1.70;;;;;;;;;;5061639;27;87141;-51
2023/05/06 11:50:12;;;;;;;3.47;1.30;;;;;;;;;;5061195;27;89726;-52
2023/05/06 11:52:41;;;;;;;2.67;1.40;;;;;;;;;;5061407;27;89803;-51
2023/05/06 11:55:10;;;;;;;2.67;2.00;;;;;;;;;;5057210;27;87090;-51
2023/05/06 11:57:45;;;;;;;1.10;1.00;;;;;;;;;;5048831;27;87330;-51
2023/05/06 12:00:14;;;;;;;2.63;1.27;;;;;;;;;;5060719;27;88283;-51
2023/05/06 12:02:42;;;;;;;2.83;1.57;;;;;;;;;;5061452;27;88791;-51
2023/05/06 12:05:12;;;;;;;2.83;1.60;;;;;;;;;;5061883;27;87068;-51
2023/05/06 12:07:42;;;;;;;1.57;1.10;;;;;;;;;;5061901;27;86386;-52
2023/05/06 12:10:10;;;;;;;2.23;1.17;;;;;;;;;;5061264;27;88410;-51
2023/05/06 12:12:39;;;;;;;1.93;1.50;;;;;;;;;;5060496;27;87488;-51
2023/05/06 12:15:09;;;;;;;2.20;1.43;;;;;;;;;;5058975;27;89093;-51
2023/05/06 12:17:38;;;;;;;2.30;1.40;;;;;;;;;;5060920;27;87078;-51
2023/05/06 12:20:07;;;;;;;1.50;1.30;;;;;;;;;;5061181;27;88131;-51
2023/05/06 12:22:37;;;;;;;2.43;1.60;;;;;;;;;;5061413;27;87766;-51
2023/05/06 12:25:13;;;;;;;1.93;1.30;;;;;;;;;;5061586;27;86802;-51
2023/05/06 12:27:41;;;;;;;2.73;1.27;;;;;;;;;;5061069;27;87047;-51
2023/05/06 12:30:11;;;;;;;2.60;1.47;;;;;;;;;;5060747;27;88097;-51
2023/05/06 12:32:55;;;;;;;2.10;1.43;;;;;;;;;;5061179;27;87711;-51
2023/05/06 12:35:27;;;;;;;2.43;1.00;;;;;;;;;;5061433;27;86978;-51
2023/05/06 12:37:55;;;;;;;3.23;1.40;;;;;;;;;;5061389;27;86983;-51
2023/05/06 12:40:24;;;;;;;1.53;1.20;;;;;;;;;;5060458;27;88844;-51
2023/05/06 12:42:55;;;;;;;1.97;1.37;;;;;;;;;;5061341;27;88704;-51
2023/05/06 12:45:25;;;;;;;2.23;1.50;;;;;;;;;;5061730;27;87124;-52
2023/05/06 12:47:54;;;;;;;1.40;1.30;;;;;;;;;;5064834;27;87006;-51
2023/05/06 12:50:32;;;;;;;2.40;1.47;;;;;;;;;;5064569;27;87931;-51
2023/05/06 12:53:00;;;;;;;1.37;1.20;;;;;;;;;;5064227;27;87863;-51
2023/05/06 12:55:30;;;;;;;2.67;1.30;;;;;;;;;;5064436;27;87009;-51
2023/05/06 12:57:58;;;;;;;10.13;1.50;;;;;;;;;;5065344;27;86299;-51
2023/05/06 13:00:28;;;;;;;1.10;1.00;;;;;;;;;;5064356;27;88115;-51
2023/05/06 13:02:56;;;;;;;1.33;1.23;;;;;;;;;;5064847;27;87910;-51
2023/05/06 13:05:25;;;;;;;1.40;1.30;;;;;;;;;;5064305;27;88097;-51
2023/05/06 13:07:53;;;;;;;1.83;1.17;;;;;;;;;;5064148;27;87105;-51
2023/05/06 13:10:22;;;;;;;1.37;1.10;;;;;;;;;;5064143;27;88178;-51
2023/05/06 13:12:50;;;;;;;1.10;1.00;;;;;;;;;;5064155;27;88970;-51
2023/05/06 13:15:18;;;;;;;1.90;1.20;;;;;;;;;;5064488;27;87306;-51
2023/05/06 13:17:48;;;;;;;1.03;0.83;;;;;;;;;;5063986;27;86912;-51
2023/05/06 13:20:17;;;;;;;2.10;1.07;;;;;;;;;;5064114;27;87029;-52
2023/05/06 13:22:46;;;;;;;1.20;1.10;;;;;;;;;;5064549;27;88791;-51
2023/05/06 13:25:21;;;;;;;1.77;0.97;;;;;;;;;;5064533;27;87009;-51
2023/05/06 13:27:50;;;;;;;2.17;1.37;;;;;;;;;;5064300;27;87060;-51
2023/05/06 13:30:18;;;;;;;1.90;1.20;;;;;;;;;;5063202;27;90283;-51
2023/05/06 13:32:46;;;;;;;1.23;1.10;;;;;;;;;;5063939;27;89516;-51
2023/05/06 13:35:16;;;;;;;1.50;1.07;;;;;;;;;;5064173;27;86966;-51
2023/05/06 13:37:44;;;;;;;1.57;1.10;;;;;;;;;;5064274;27;86967;-51
2023/05/06 13:40:13;;;;;;;2.37;1.10;;;;;;;;;;5064000;27;89207;-51
2023/05/06 13:42:41;;;;;;;1.60;1.40;;;;;;;;;;5064013;27;87951;-51
2023/05/06 13:45:10;;;;;;;3.53;1.70;;;;;;;;;;5064205;27;87008;-51
2023/05/06 13:47:38;;;;;;;1.97;1.33;;;;;;;;;;5064468;27;86317;-51
2023/05/06 13:50:07;;;;;;;1.50;1.37;;;;;;;;;;5063853;27;88005;-51
2023/05/06 13:52:37;;;;;;;1.60;1.33;;;;;;;;;;5063791;27;88941;-51
2023/05/06 13:55:06;;;;;;;2.90;1.67;;;;;;;;;;5063545;27;87941;-51
2023/05/06 13:57:35;;;;;;;3.50;1.77;;;;;;;;;;5063292;27;86992;-51
2023/05/06 14:00:06;;;;;;;1.97;1.70;;;;;;;;;;5063160;27;89099;-51
2023/05/06 14:02:35;;;;;;;1.70;1.60;;;;;;;;;;5063277;27;87924;-51
2023/05/06 14:05:03;;;;;;;2.60;1.60;;;;;;;;;;5063980;27;86839;-51
2023/05/06 14:07:32;;;;;;;2.77;1.90;;;;;;;;;;5063421;27;87008;-51
2023/05/06 14:10:01;;;;;;;2.33;1.77;;;;;;;;;;5063176;27;89098;-51
2023/05/06 14:12:30;;;;;;;3.43;2.13;;;;;;;;;;5063714;27;87709;-51
2023/05/06 14:14:58;;;;;;;2.03;1.70;;;;;;;;;;5063751;27;87225;-51
2023/05/06 14:17:26;;;;;;;3.80;1.87;;;;;;;;;;5063335;27;86976;-51
2023/05/06 14:19:55;;;;;;;2.80;1.60;;;;;;;;;;5062875;27;89106;-51
2023/05/06 14:22:23;;;;;;;4.70;2.00;;;;;;;;;;5063385;27;89770;-51
2023/05/06 14:24:51;;;;;;;3.23;1.50;;;;;;;;;;5063549;27;86922;-51
2023/05/06 14:27:21;;;;;;;4.93;1.70;;;;;;;;;;5063111;27;86928;-51
2023/05/06 14:29:50;;;;;;;2.17;1.87;;;;;;;;;;5062595;27;88361;-51
2023/05/06 14:32:18;;;;;;;2.23;2.03;;;;;;;;;;5062808;27;88749;-51
2023/05/06 14:34:46;;;;;;;3.70;1.73;;;;;;;;;;5063727;27;87010;-51
2023/05/06 14:37:15;;;;;;;2.37;1.70;;;;;;;;;;5063557;27;86366;-51
2023/05/06 14:39:43;;;;;;;2.63;1.80;;;;;;;;;;5062993;27;89265;-52
2023/05/06 14:42:12;;;;;;;2.20;1.67;;;;;;;;;;5062637;27;88949;-51
2023/05/06 14:44:42;;;;;;;2.90;1.50;;;;;;;;;;5062645;27;88095;-52
2023/05/06 14:47:10;;;;;;;1.93;1.77;;;;;;;;;;5062652;27;87059;-51
2023/05/06 14:49:38;;;;;;;1.90;1.70;;;;;;;;;;5062187;27;88198;-51
2023/05/06 14:52:07;;;;;;;2.17;1.70;;;;;;;;;;5062628;27;88798;-51
2023/05/06 14:54:40;;;;;;;1.30;1.20;;;;;;;;;;5063423;27;87217;-51